createdAt,value
2022-11-07T00:01:23.326Z,4.50
2022-11-07T00:02:56.987Z,4.40
2022-11-07T00:04:32.475Z,4.93
2022-11-07T00:06:05.595Z,4.57
2022-11-07T00:07:37.542Z,4.40
2022-11-07T00:09:10.271Z,4.00
2022-11-07T00:10:43.043Z,4.70
2022-11-07T00:12:15.809Z,4.70
2022-11-07T00:13:48.707Z,4.80
2022-11-07T00:15:21.481Z,4.70
2022-11-07T00:16:54.505Z,4.78
2022-11-07T00:18:27.651Z,4.78
2022-11-07T00:20:01.714Z,4.75
2022-11-07T00:21:34.487Z,5.03
2022-11-07T00:23:07.245Z,3.97
2022-11-07T00:24:39.041Z,4.57
2022-11-07T00:26:13.751Z,4.63
2022-11-07T00:27:46.470Z,4.60
2022-11-07T00:29:21.430Z,4.72
2022-11-07T00:30:53.222Z,5.43
2022-11-07T00:32:25.950Z,4.72
2022-11-07T00:33:59.103Z,4.95
2022-11-07T00:35:33.349Z,5.45
2022-11-07T00:37:05.118Z,5.22
2022-11-07T00:38:38.441Z,6.15
2022-11-07T00:40:11.965Z,5.53
2022-11-07T00:41:47.420Z,5.78
2022-11-07T00:43:20.165Z,5.60
2022-11-07T00:44:52.897Z,5.43
2022-11-07T00:46:25.193Z,5.55
2022-11-07T00:47:57.903Z,5.55
2022-11-07T00:49:30.632Z,5.35
2022-11-07T00:51:07.183Z,5.18
2022-11-07T00:52:39.955Z,5.90
2022-11-07T00:54:12.744Z,5.15
2022-11-07T00:55:45.931Z,4.47
2022-11-07T00:57:18.658Z,4.55
2022-11-07T00:58:54.990Z,4.40
2022-11-07T01:00:27.960Z,5.28
2022-11-07T01:02:00.788Z,5.10
2022-11-07T01:03:51.053Z,4.97
2022-11-07T01:05:22.817Z,5.32
2022-11-07T01:06:56.897Z,4.70
2022-11-07T01:08:29.627Z,4.82
2022-11-07T01:10:02.366Z,4.93
2022-11-07T01:11:36.240Z,5.13
2022-11-07T01:13:09.028Z,5.05
2022-11-07T01:14:41.786Z,4.73
2022-11-07T01:16:13.625Z,4.68
2022-11-07T01:17:46.363Z,5.00
2022-11-07T01:19:19.554Z,4.82
2022-11-07T01:20:52.771Z,5.22
2022-11-07T01:22:26.825Z,5.32
2022-11-07T01:24:00.091Z,5.80
2022-11-07T01:25:32.828Z,5.30
2022-11-07T01:27:05.577Z,5.53
2022-11-07T01:28:38.598Z,5.43
2022-11-07T01:30:12.182Z,5.45
2022-11-07T01:31:45.003Z,5.57
2022-11-07T01:33:17.107Z,5.03
2022-11-07T01:34:50.164Z,5.35
2022-11-07T01:36:22.920Z,5.40
2022-11-07T01:37:57.001Z,5.28
2022-11-07T01:39:29.721Z,5.20
2022-11-07T01:41:20.030Z,5.50
2022-11-07T01:42:52.807Z,5.60
2022-11-07T01:44:50.204Z,5.80
2022-11-07T01:46:25.466Z,5.37
2022-11-07T01:48:01.983Z,5.70
2022-11-07T01:49:38.202Z,5.50
2022-11-07T01:51:11.871Z,4.97
2022-11-07T01:52:47.568Z,5.05
2022-11-07T01:54:26.319Z,5.50
2022-11-07T01:55:59.090Z,5.63
2022-11-07T01:57:36.337Z,5.00
2022-11-07T01:59:11.515Z,4.85
2022-11-07T02:00:44.328Z,5.00
2022-11-07T02:02:17.494Z,5.45
2022-11-07T02:03:51.627Z,5.15
2022-11-07T02:05:29.379Z,5.00
2022-11-07T02:07:05.467Z,5.18
2022-11-07T02:08:42.546Z,5.18
2022-11-07T02:10:18.086Z,5.30
2022-11-07T02:11:50.070Z,5.85
2022-11-07T02:13:28.635Z,5.95
2022-11-07T02:15:02.536Z,5.47
2022-11-07T02:16:36.621Z,5.32
2022-11-07T02:18:09.372Z,5.68
2022-11-07T02:19:45.334Z,5.67
2022-11-07T02:21:30.358Z,5.32
2022-11-07T02:23:08.470Z,5.67
2022-11-07T02:24:43.129Z,5.30
2022-11-07T02:26:16.277Z,5.77
2022-11-07T02:27:52.281Z,5.10
2022-11-07T02:29:27.043Z,4.75
2022-11-07T02:30:59.782Z,4.78
2022-11-07T02:32:32.753Z,4.70
2022-11-07T02:34:05.536Z,4.65
2022-11-07T02:35:41.023Z,4.60
2022-11-07T02:37:21.857Z,3.97
2022-11-07T02:38:58.619Z,4.50
2022-11-07T02:40:32.266Z,4.35
2022-11-07T02:42:06.397Z,4.10
2022-11-07T02:43:42.228Z,3.97
2022-11-07T02:45:18.351Z,3.72
2022-11-07T02:46:51.237Z,3.87
2022-11-07T02:48:28.698Z,3.67
2022-11-07T02:50:01.442Z,4.15
2022-11-07T02:51:34.177Z,4.03
2022-11-07T02:53:06.010Z,3.70
2022-11-07T02:54:38.741Z,4.00
2022-11-07T02:56:12.243Z,4.33
2022-11-07T02:57:45.217Z,3.90
2022-11-07T02:59:19.243Z,3.88
2022-11-07T03:00:54.566Z,3.93
2022-11-07T03:02:26.545Z,4.27
2022-11-07T03:03:59.592Z,3.78
2022-11-07T03:05:32.330Z,3.60
2022-11-07T03:07:05.123Z,3.70
2022-11-07T03:08:38.094Z,3.47
2022-11-07T03:10:12.134Z,3.85
2022-11-07T03:11:46.256Z,3.58
2022-11-07T03:13:18.092Z,3.50
2022-11-07T03:14:51.007Z,3.50
2022-11-07T03:16:23.862Z,3.30
2022-11-07T03:17:56.602Z,3.60
2022-11-07T03:19:29.375Z,3.20
2022-11-07T03:21:02.484Z,3.80
2022-11-07T03:22:35.261Z,3.70
2022-11-07T03:24:08.253Z,3.35
2022-11-07T03:25:40.046Z,3.90
2022-11-07T03:27:15.391Z,3.47
2022-11-07T03:28:48.141Z,3.87
2022-11-07T03:30:19.902Z,3.80
2022-11-07T03:31:52.662Z,3.25
2022-11-07T03:33:25.389Z,3.63
2022-11-07T03:34:58.108Z,3.63
2022-11-07T03:36:30.997Z,3.47
2022-11-07T03:38:03.759Z,3.73
2022-11-07T03:39:36.503Z,3.43
2022-11-07T03:41:09.255Z,3.30
2022-11-07T03:42:44.470Z,3.47
2022-11-07T03:44:17.238Z,3.43
2022-11-07T03:45:49.972Z,3.83
2022-11-07T03:47:21.795Z,2.97
2022-11-07T03:48:54.510Z,3.50
2022-11-07T03:50:27.217Z,3.58
2022-11-07T03:51:59.937Z,3.60
2022-11-07T03:53:32.697Z,3.40
2022-11-07T03:55:05.470Z,3.35
2022-11-07T03:56:38.227Z,3.40
2022-11-07T03:58:12.294Z,3.10
2022-11-07T03:59:45.069Z,3.60
2022-11-07T04:01:17.927Z,3.00
2022-11-07T04:02:50.875Z,3.50
2022-11-07T04:04:22.742Z,2.80
2022-11-07T04:05:55.533Z,3.00
2022-11-07T04:07:28.248Z,2.90
2022-11-07T04:09:00.996Z,3.10
2022-11-07T04:10:33.722Z,3.40
2022-11-07T04:12:24.546Z,3.50
2022-11-07T04:14:16.407Z,2.87
2022-11-07T04:16:09.147Z,2.87
2022-11-07T04:17:44.091Z,2.95
2022-11-07T04:19:16.831Z,2.80
2022-11-07T04:20:49.577Z,2.90
2022-11-07T04:22:21.915Z,2.73
2022-11-07T04:23:54.653Z,2.87
2022-11-07T04:25:41.338Z,3.13
2022-11-07T04:27:32.993Z,2.80
2022-11-07T04:29:07.065Z,2.77
2022-11-07T04:30:39.787Z,2.77
2022-11-07T04:32:11.561Z,3.20
2022-11-07T04:33:44.288Z,3.23
2022-11-07T04:35:17.730Z,2.70
2022-11-07T04:36:50.477Z,2.90
2022-11-07T04:38:23.346Z,2.80
2022-11-07T04:39:55.090Z,2.90
2022-11-07T04:41:27.813Z,2.80
2022-11-07T04:43:00.544Z,2.90
2022-11-07T04:44:34.654Z,2.60
2022-11-07T04:46:07.400Z,2.80
2022-11-07T04:47:40.715Z,2.77
2022-11-07T04:49:15.031Z,2.70
2022-11-07T04:50:47.931Z,2.90
2022-11-07T04:52:19.722Z,2.87
2022-11-07T04:53:52.468Z,3.00
2022-11-07T04:55:27.813Z,3.10
2022-11-07T04:57:00.592Z,2.85
2022-11-07T04:58:33.324Z,2.93
2022-11-07T05:00:09.342Z,2.70
2022-11-07T05:01:42.141Z,2.87
2022-11-07T05:03:15.311Z,3.07
2022-11-07T05:04:48.359Z,3.07
2022-11-07T05:06:21.881Z,3.10
2022-11-07T05:07:54.749Z,3.33
2022-11-07T05:09:27.713Z,3.20
2022-11-07T05:11:00.446Z,2.73
2022-11-07T05:12:33.268Z,2.80
2022-11-07T05:14:06.028Z,2.80
2022-11-07T05:15:40.691Z,2.87
2022-11-07T05:17:15.474Z,2.80
2022-11-07T05:18:48.214Z,2.63
2022-11-07T05:20:29.165Z,2.70
2022-11-07T05:22:19.559Z,3.23
2022-11-07T05:23:52.301Z,2.60
2022-11-07T05:25:24.039Z,2.73
2022-11-07T05:26:56.797Z,2.80
2022-11-07T05:28:38.197Z,2.77
2022-11-07T05:30:13.059Z,2.67
2022-11-07T05:31:47.129Z,2.50
2022-11-07T05:33:20.378Z,2.50
2022-11-07T05:34:53.139Z,2.43
2022-11-07T05:36:25.858Z,2.60
2022-11-07T05:37:58.594Z,2.33
2022-11-07T05:39:31.859Z,2.60
2022-11-07T05:41:05.178Z,2.60
2022-11-07T05:42:37.928Z,2.20
2022-11-07T05:44:11.431Z,2.50
2022-11-07T05:45:44.157Z,2.30
2022-11-07T05:47:18.250Z,2.43
2022-11-07T05:48:55.382Z,2.27
2022-11-07T05:50:31.226Z,2.33
2022-11-07T05:52:03.949Z,2.33
2022-11-07T05:53:36.763Z,2.60
2022-11-07T05:55:09.894Z,2.30
2022-11-07T05:56:43.904Z,2.57
2022-11-07T05:58:16.647Z,2.50
2022-11-07T05:59:49.357Z,2.43
2022-11-07T06:01:22.094Z,2.57
2022-11-07T06:02:56.791Z,2.30
2022-11-07T06:04:29.583Z,2.30
2022-11-07T06:06:02.364Z,2.40
2022-11-07T06:07:35.585Z,2.20
2022-11-07T06:09:08.359Z,2.80
2022-11-07T06:10:42.544Z,2.70
2022-11-07T06:12:15.285Z,2.27
2022-11-07T06:13:47.992Z,2.20
2022-11-07T06:15:20.705Z,2.20
2022-11-07T06:16:53.441Z,2.20
2022-11-07T06:18:27.492Z,2.50
2022-11-07T06:20:00.243Z,2.20
2022-11-07T06:21:33.178Z,2.87
2022-11-07T06:23:07.179Z,2.27
2022-11-07T06:24:39.915Z,2.40
2022-11-07T06:26:12.943Z,2.13
2022-11-07T06:27:45.685Z,2.40
2022-11-07T06:29:18.661Z,2.20
2022-11-07T06:30:51.391Z,2.50
2022-11-07T06:32:24.133Z,2.17
2022-11-07T06:33:58.186Z,2.23
2022-11-07T06:35:31.313Z,2.13
2022-11-07T06:37:04.036Z,2.47
2022-11-07T06:38:37.070Z,2.00
2022-11-07T06:40:11.285Z,2.17
2022-11-07T06:41:43.989Z,2.23
2022-11-07T06:43:19.279Z,2.20
2022-11-07T06:44:52.282Z,2.27
2022-11-07T06:46:25.223Z,2.40
2022-11-07T06:47:57.951Z,2.50
2022-11-07T06:49:32.017Z,2.00
2022-11-07T06:51:06.496Z,2.10
2022-11-07T06:52:39.231Z,2.23
2022-11-07T06:54:13.204Z,2.00
2022-11-07T06:55:45.934Z,2.03
2022-11-07T06:57:18.662Z,2.13
2022-11-07T06:58:51.659Z,2.30
2022-11-07T07:00:23.426Z,2.40
2022-11-07T07:01:56.194Z,2.77
2022-11-07T07:03:29.053Z,2.30
2022-11-07T07:05:03.113Z,2.30
2022-11-07T07:06:35.817Z,2.07
2022-11-07T07:08:11.886Z,2.23
2022-11-07T07:09:44.705Z,1.90
2022-11-07T07:11:17.651Z,2.30
2022-11-07T07:12:50.388Z,2.00
2022-11-07T07:14:23.189Z,2.03
2022-11-07T07:15:56.564Z,1.67
2022-11-07T07:17:29.326Z,2.23
2022-11-07T07:19:02.060Z,2.03
2022-11-07T07:20:36.161Z,2.20
2022-11-07T07:22:12.981Z,2.17
2022-11-07T07:23:45.734Z,2.13
2022-11-07T07:25:17.578Z,2.23
2022-11-07T07:26:50.307Z,1.97
2022-11-07T07:28:23.086Z,2.30
2022-11-07T07:29:55.826Z,2.07
2022-11-07T07:31:31.643Z,2.20
2022-11-07T07:33:04.486Z,2.17
2022-11-07T07:34:37.210Z,2.00
2022-11-07T07:36:15.272Z,2.47
2022-11-07T07:37:51.779Z,2.50
2022-11-07T07:39:25.373Z,2.00
2022-11-07T07:40:58.448Z,1.93
2022-11-07T07:42:31.182Z,2.00
2022-11-07T07:44:04.060Z,2.63
2022-11-07T07:45:36.787Z,2.47
2022-11-07T07:47:11.417Z,2.50
2022-11-07T07:48:44.523Z,2.10
2022-11-07T07:50:17.244Z,1.80
2022-11-07T07:51:51.339Z,2.10
2022-11-07T07:53:24.119Z,2.57
2022-11-07T07:54:56.843Z,2.40
2022-11-07T07:56:29.563Z,1.83
2022-11-07T07:58:02.452Z,2.10
2022-11-07T07:59:35.245Z,2.30
2022-11-07T08:01:10.424Z,2.30
2022-11-07T08:02:44.006Z,1.97
2022-11-07T08:04:16.746Z,2.43
2022-11-07T08:05:54.726Z,2.67
2022-11-07T08:07:28.838Z,2.50
2022-11-07T08:09:01.625Z,2.10
2022-11-07T08:10:41.938Z,2.40
2022-11-07T08:12:15.673Z,2.50
2022-11-07T08:13:48.409Z,2.20
2022-11-07T08:15:21.647Z,2.27
2022-11-07T08:16:54.374Z,2.20
2022-11-07T08:18:27.104Z,2.33
2022-11-07T08:19:59.843Z,2.43
2022-11-07T08:21:32.733Z,2.53
2022-11-07T08:23:14.923Z,2.00
2022-11-07T08:24:49.336Z,2.00
2022-11-07T08:26:22.060Z,2.13
2022-11-07T08:27:54.930Z,2.27
2022-11-07T08:29:27.698Z,2.10
2022-11-07T08:31:04.327Z,2.10
2022-11-07T08:32:37.188Z,2.20
2022-11-07T08:34:09.955Z,2.40
2022-11-07T08:35:43.024Z,2.60
2022-11-07T08:37:15.762Z,2.20
2022-11-07T08:38:49.818Z,2.60
2022-11-07T08:40:22.974Z,2.20
2022-11-07T08:41:55.703Z,2.47
2022-11-07T08:43:28.484Z,1.93
2022-11-07T08:45:01.207Z,2.30
2022-11-07T08:46:33.939Z,2.80
2022-11-07T08:48:07.373Z,2.27
2022-11-07T08:49:40.091Z,2.17
2022-11-07T08:51:12.809Z,2.23
2022-11-07T08:52:45.549Z,2.53
2022-11-07T08:54:21.239Z,2.20
2022-11-07T08:55:54.358Z,2.07
2022-11-07T08:57:27.079Z,2.00
2022-11-07T08:58:59.913Z,2.43
2022-11-07T09:00:33.153Z,1.90
2022-11-07T09:03:59.121Z,2.00
2022-11-07T09:05:32.192Z,2.00
2022-11-07T09:07:04.998Z,2.07
2022-11-07T09:08:37.827Z,2.00
2022-11-07T09:10:12.589Z,1.80
2022-11-07T09:11:45.346Z,1.83
2022-11-07T09:13:19.284Z,2.07
2022-11-07T09:14:52.197Z,1.60
2022-11-07T09:16:25.462Z,1.80
2022-11-07T09:18:03.563Z,2.10
2022-11-07T09:19:36.494Z,1.90
2022-11-07T09:21:09.209Z,2.00
2022-11-07T09:22:42.313Z,1.97
2022-11-07T09:24:15.075Z,2.20
2022-11-07T09:25:49.248Z,1.90
2022-11-07T09:27:21.991Z,2.13
2022-11-07T09:29:00.822Z,2.20
2022-11-07T09:30:33.989Z,2.17
2022-11-07T09:32:30.408Z,1.67
2022-11-07T09:33:59.424Z,2.10
2022-11-07T09:35:32.148Z,2.10
2022-11-07T09:37:04.874Z,2.20
2022-11-07T09:38:37.623Z,2.00
2022-11-07T09:40:23.206Z,2.20
2022-11-07T09:42:04.254Z,2.00
2022-11-07T09:43:52.880Z,1.80
2022-11-07T09:45:25.606Z,2.13
2022-11-07T09:47:02.321Z,2.30
2022-11-07T09:48:40.517Z,1.90
2022-11-07T09:50:18.394Z,2.00
2022-11-07T09:51:56.711Z,2.30
2022-11-07T09:53:34.173Z,1.80
2022-11-07T09:55:15.153Z,2.07
2022-11-07T09:56:48.370Z,2.10
2022-11-07T09:58:29.559Z,2.20
2022-11-07T10:00:05.587Z,2.50
2022-11-07T10:01:38.416Z,1.93
2022-11-07T10:03:11.651Z,1.90
2022-11-07T10:04:45.093Z,2.30
2022-11-07T10:06:24.592Z,2.27
2022-11-07T10:08:04.423Z,2.10
2022-11-07T10:09:44.915Z,2.00
2022-11-07T10:11:34.450Z,2.23
2022-11-07T10:13:19.556Z,1.93
2022-11-07T10:15:04.102Z,2.20
2022-11-07T10:16:47.654Z,2.33
2022-11-07T10:18:29.563Z,2.50
2022-11-07T10:20:14.164Z,1.90
2022-11-07T10:21:59.057Z,1.90
2022-11-07T10:23:48.286Z,2.10
2022-11-07T10:25:23.667Z,2.17
2022-11-07T10:26:57.437Z,2.57
2022-11-07T10:28:31.944Z,2.30
2022-11-07T10:30:17.002Z,2.07
2022-11-07T10:31:56.063Z,1.97
2022-11-07T10:33:38.293Z,2.60
2022-11-07T10:35:24.606Z,1.93
2022-11-07T10:36:57.398Z,2.37
2022-11-07T10:38:32.100Z,2.13
2022-11-07T10:40:15.559Z,2.40
2022-11-07T10:42:03.529Z,2.17
2022-11-07T10:43:38.814Z,2.20
2022-11-07T10:45:15.567Z,2.10
2022-11-07T10:46:51.589Z,1.60
2022-11-07T10:48:29.435Z,2.00
2022-11-07T10:50:17.303Z,1.97
2022-11-07T10:51:50.528Z,1.80
2022-11-07T10:53:25.308Z,2.00
2022-11-07T10:55:09.416Z,2.50
2022-11-07T10:56:45.962Z,1.87
2022-11-07T10:58:21.460Z,2.50
2022-11-07T10:59:59.348Z,1.70
2022-11-07T11:01:33.545Z,1.80
2022-11-07T11:03:17.200Z,1.70
2022-11-07T11:04:51.585Z,1.80
2022-11-07T11:06:31.132Z,1.73
2022-11-07T11:08:15.080Z,1.97
2022-11-07T11:09:53.128Z,1.90
2022-11-07T11:11:30.517Z,1.50
2022-11-07T11:13:03.380Z,1.70
2022-11-07T11:14:36.158Z,1.70
2022-11-07T11:16:25.730Z,1.70
2022-11-07T11:18:02.648Z,1.90
2022-11-07T11:19:40.943Z,1.83
2022-11-07T11:21:13.698Z,2.10
2022-11-07T11:22:46.486Z,1.73
2022-11-07T11:24:27.827Z,1.90
2022-11-07T11:26:02.231Z,1.83
2022-11-07T11:27:36.381Z,1.90
2022-11-07T11:29:14.114Z,1.87
2022-11-07T11:30:51.853Z,1.90
2022-11-07T11:32:29.563Z,1.97
2022-11-07T11:34:11.358Z,1.90
2022-11-07T11:35:48.559Z,1.77
2022-11-07T11:37:23.124Z,2.00
2022-11-07T11:38:56.079Z,1.97
2022-11-07T11:40:33.562Z,2.00
2022-11-07T11:42:07.041Z,2.00
2022-11-07T11:43:44.670Z,2.17
2022-11-07T11:45:21.413Z,1.90
2022-11-07T11:47:00.209Z,2.17
2022-11-07T11:48:39.407Z,1.80
2022-11-07T11:50:17.768Z,2.10
2022-11-07T11:51:54.977Z,2.03
2022-11-07T11:53:29.405Z,1.90
2022-11-07T11:55:02.873Z,2.10
2022-11-07T11:56:47.726Z,2.00
2022-11-07T11:58:37.074Z,1.90
2022-11-07T12:00:15.262Z,2.07
2022-11-07T12:01:56.727Z,2.40
2022-11-07T12:03:56.890Z,2.50
2022-11-07T12:06:06.411Z,2.30
2022-11-07T12:07:52.634Z,2.00
2022-11-07T12:09:41.363Z,2.20
2022-11-07T12:11:24.131Z,2.27
2022-11-07T12:13:06.707Z,1.80
2022-11-07T12:14:58.096Z,1.90
2022-11-07T12:16:38.371Z,1.87
2022-11-07T12:18:19.335Z,2.13
2022-11-07T12:19:59.159Z,1.97
2022-11-07T12:21:34.536Z,2.07
2022-11-07T12:23:25.038Z,1.67
2022-11-07T12:25:04.679Z,2.07
2022-11-07T12:26:44.841Z,2.20
2022-11-07T12:28:41.376Z,2.00
2022-11-07T12:30:21.300Z,2.17
2022-11-07T12:32:08.676Z,2.17
2022-11-07T12:33:48.666Z,1.90
2022-11-07T12:35:44.200Z,1.83
2022-11-07T12:37:35.326Z,1.90
2022-11-07T12:39:22.709Z,2.00
2022-11-07T12:41:01.906Z,1.93
2022-11-07T12:42:50.439Z,1.70
2022-11-07T12:44:46.720Z,2.00
2022-11-07T12:46:26.648Z,1.97
2022-11-07T12:48:19.534Z,1.97
2022-11-07T12:50:07.297Z,2.07
2022-11-07T12:51:51.673Z,2.13
2022-11-07T12:53:42.688Z,1.80
2022-11-07T12:55:22.194Z,2.20
2022-11-07T12:56:57.133Z,1.97
2022-11-07T12:58:33.182Z,2.17
2022-11-07T13:00:09.503Z,2.20
2022-11-07T13:01:48.979Z,2.17
2022-11-07T13:03:42.056Z,2.13
2022-11-07T13:05:26.387Z,1.87
2022-11-07T13:07:05.714Z,1.97
2022-11-07T13:08:47.088Z,2.30
2022-11-07T13:10:27.505Z,1.93
2022-11-07T13:12:06.469Z,1.70
2022-11-07T13:13:51.680Z,1.90
2022-11-07T13:15:24.683Z,1.90
2022-11-07T13:17:12.979Z,2.07
2022-11-07T13:18:45.764Z,2.33
2022-11-07T13:20:29.943Z,2.10
2022-11-07T13:22:04.032Z,1.90
2022-11-07T13:23:36.940Z,2.23
2022-11-07T13:25:31.438Z,2.43
2022-11-07T13:27:16.820Z,2.00
2022-11-07T13:28:58.046Z,1.97
2022-11-07T13:30:36.205Z,2.00
2022-11-07T13:32:11.129Z,1.93
2022-11-07T13:33:43.887Z,1.70
2022-11-07T13:35:26.935Z,1.90
2022-11-07T13:37:03.361Z,2.40
2022-11-07T13:38:42.447Z,2.30
2022-11-07T13:40:24.476Z,1.80
2022-11-07T13:42:00.287Z,2.20
2022-11-07T13:43:41.094Z,2.00
2022-11-07T13:45:27.362Z,2.00
2022-11-07T13:47:05.107Z,2.33
2022-11-07T13:48:49.858Z,1.70
2022-11-07T13:50:26.037Z,2.20
2022-11-07T13:52:03.612Z,2.20
2022-11-07T13:53:43.160Z,2.00
2022-11-07T13:55:21.132Z,1.80
2022-11-07T13:57:00.395Z,1.80
2022-11-07T13:58:38.075Z,1.83
2022-11-07T14:00:14.585Z,2.10
2022-11-07T14:01:47.623Z,1.93
2022-11-07T14:03:26.609Z,2.03
2022-11-07T14:05:16.228Z,1.87
2022-11-07T14:06:51.187Z,2.00
2022-11-07T14:08:28.974Z,1.77
2022-11-07T14:10:04.044Z,2.33
2022-11-07T14:11:38.211Z,2.00
2022-11-07T14:13:14.835Z,1.83
2022-11-07T14:14:49.435Z,1.90
2022-11-07T14:16:24.970Z,2.00
2022-11-07T14:17:57.838Z,2.23
2022-11-07T14:19:31.063Z,1.80
2022-11-07T14:21:04.645Z,2.40
2022-11-07T14:22:38.064Z,1.80
2022-11-07T14:24:22.523Z,1.90
2022-11-07T14:25:57.647Z,1.97
2022-11-07T14:27:30.467Z,1.83
2022-11-07T14:29:04.670Z,1.93
2022-11-07T14:30:42.556Z,2.30
2022-11-07T14:32:18.025Z,1.97
2022-11-07T14:33:53.592Z,1.87
2022-11-07T14:35:29.712Z,1.87
2022-11-07T14:37:06.426Z,2.10
2022-11-07T14:38:46.624Z,1.63
2022-11-07T14:40:20.262Z,2.30
2022-11-07T14:41:53.633Z,2.00
2022-11-07T14:43:28.455Z,1.97
2022-11-07T14:45:04.099Z,2.33
2022-11-07T14:46:37.827Z,2.17
2022-11-07T14:48:12.472Z,1.77
2022-11-07T14:49:47.854Z,2.33
2022-11-07T14:51:24.691Z,2.30
2022-11-07T14:53:03.770Z,2.10
2022-11-07T14:54:40.334Z,1.80
2022-11-07T14:56:16.831Z,1.87
2022-11-07T14:57:50.823Z,1.80
2022-11-07T14:59:26.854Z,2.13
2022-11-07T15:01:12.466Z,1.80
2022-11-07T15:02:46.505Z,1.87
2022-11-07T15:04:29.358Z,1.70
2022-11-07T15:06:02.712Z,2.07
2022-11-07T15:07:46.267Z,2.20
2022-11-07T15:09:19.399Z,1.93
2022-11-07T15:11:01.503Z,2.00
2022-11-07T15:12:50.453Z,1.90
2022-11-07T15:14:25.144Z,1.80
2022-11-07T15:16:05.087Z,1.80
2022-11-07T15:17:45.862Z,1.43
2022-11-07T15:19:21.477Z,1.83
2022-11-07T15:20:58.728Z,1.87
2022-11-07T15:22:36.752Z,1.50
2022-11-07T15:24:34.963Z,1.70
2022-11-07T15:26:13.476Z,1.80
2022-11-07T15:27:46.490Z,2.27
2022-11-07T15:29:22.383Z,1.80
2022-11-07T15:30:57.185Z,1.87
2022-11-07T15:32:35.499Z,1.53
2022-11-07T15:34:13.117Z,1.80
2022-11-07T15:35:47.617Z,1.90
2022-11-07T15:37:22.724Z,1.80
2022-11-07T15:38:56.131Z,1.70
2022-11-07T15:40:30.472Z,2.00
2022-11-07T15:42:03.232Z,2.17
2022-11-07T15:43:37.124Z,1.90
2022-11-07T15:45:11.004Z,2.00
2022-11-07T15:46:43.982Z,2.00
2022-11-07T15:48:21.504Z,2.20
2022-11-07T15:49:54.261Z,2.03
2022-11-07T15:51:26.991Z,2.10
2022-11-07T15:52:59.716Z,1.90
2022-11-07T15:54:32.441Z,1.90
2022-11-07T15:56:08.198Z,1.60
2022-11-07T15:57:41.513Z,1.97
2022-11-07T15:59:19.163Z,1.80
2022-11-07T16:00:52.291Z,1.77
2022-11-07T16:02:25.153Z,1.77
2022-11-07T16:03:59.370Z,2.23
2022-11-07T16:05:32.112Z,1.90
2022-11-07T16:07:04.890Z,1.97
2022-11-07T16:08:37.644Z,2.17
2022-11-07T16:10:24.757Z,3.30
2022-11-07T16:11:57.484Z,4.43
2022-11-07T16:13:30.531Z,2.37
2022-11-07T16:15:03.402Z,2.10
2022-11-07T16:16:36.248Z,2.10
2022-11-07T16:18:16.133Z,2.17
2022-11-07T16:19:50.425Z,1.90
2022-11-07T16:21:23.246Z,2.03
2022-11-07T16:22:55.945Z,2.20
2022-11-07T16:24:28.658Z,2.07
2022-11-07T16:26:01.475Z,2.00
2022-11-07T16:27:34.243Z,1.73
2022-11-07T16:29:07.081Z,1.90
2022-11-07T16:30:39.805Z,1.93
2022-11-07T16:32:18.089Z,2.10
2022-11-07T16:33:53.205Z,1.90
2022-11-07T16:35:27.348Z,2.03
2022-11-07T16:37:00.121Z,1.90
2022-11-07T16:38:35.491Z,2.00
2022-11-07T16:40:13.327Z,1.93
2022-11-07T16:41:46.053Z,1.97
2022-11-07T16:43:19.131Z,2.07
2022-11-07T16:44:51.984Z,2.13
2022-11-07T16:46:26.746Z,2.00
2022-11-07T16:48:00.524Z,2.17
2022-11-07T16:49:33.848Z,2.00
2022-11-07T16:51:08.547Z,2.17
2022-11-07T16:52:41.286Z,2.10
2022-11-07T16:54:14.038Z,2.10
2022-11-07T16:55:53.261Z,2.00
2022-11-07T16:57:27.224Z,2.03
2022-11-07T16:59:00.287Z,2.10
2022-11-07T17:00:33.059Z,2.20
2022-11-07T17:02:20.444Z,2.30
2022-11-07T17:03:54.333Z,2.50
2022-11-07T17:05:27.091Z,2.20
2022-11-07T17:07:01.239Z,2.70
2022-11-07T17:08:38.500Z,2.30
2022-11-07T17:10:16.293Z,1.80
2022-11-07T17:11:49.727Z,2.20
2022-11-07T17:13:23.162Z,2.43
2022-11-07T17:14:55.906Z,2.20
2022-11-07T17:16:34.594Z,2.00
2022-11-07T17:18:08.493Z,2.07
2022-11-07T17:19:41.474Z,2.37
2022-11-07T17:21:36.206Z,2.20
2022-11-07T17:23:10.291Z,2.10
2022-11-07T17:24:43.388Z,2.90
2022-11-07T17:26:19.679Z,3.73
2022-11-07T17:27:52.402Z,2.90
2022-11-07T17:29:25.539Z,2.37
2022-11-07T17:30:58.305Z,3.23
2022-11-07T17:32:31.047Z,2.60
2022-11-07T17:34:03.819Z,2.70
2022-11-07T17:35:38.016Z,2.90
2022-11-07T17:37:16.192Z,2.27
2022-11-07T17:38:51.222Z,2.43
2022-11-07T17:40:27.498Z,2.17
2022-11-07T17:42:00.421Z,2.50
2022-11-07T17:43:33.213Z,2.17
2022-11-07T17:45:06.802Z,2.17
2022-11-07T17:46:43.867Z,2.13
2022-11-07T17:48:16.970Z,2.20
2022-11-07T17:49:49.886Z,2.20
2022-11-07T17:51:23.617Z,2.07
2022-11-07T17:52:56.447Z,1.80
2022-11-07T17:54:30.562Z,2.10
2022-11-07T17:56:03.278Z,2.13
2022-11-07T17:57:36.120Z,2.50
2022-11-07T17:59:12.790Z,2.47
2022-11-07T18:00:45.501Z,2.43
2022-11-07T18:02:20.281Z,2.93
2022-11-07T18:03:54.611Z,2.17
2022-11-07T18:05:33.401Z,2.70
2022-11-07T18:07:06.319Z,2.43
2022-11-07T18:08:51.591Z,2.03
2022-11-07T18:10:26.898Z,2.47
2022-11-07T18:11:59.661Z,2.13
2022-11-07T18:13:32.486Z,2.20
2022-11-07T18:15:05.981Z,2.47
2022-11-07T18:16:38.755Z,2.40
2022-11-07T18:18:11.770Z,1.90
2022-11-07T18:19:44.525Z,2.00
2022-11-07T18:21:17.614Z,2.17
2022-11-07T18:22:50.376Z,2.30
2022-11-07T18:24:23.439Z,2.47
2022-11-07T18:26:04.682Z,2.60
2022-11-07T18:27:37.720Z,2.30
2022-11-07T18:29:13.658Z,2.20
2022-11-07T18:30:46.391Z,2.40
2022-11-07T18:32:19.180Z,2.30
2022-11-07T18:33:56.048Z,2.50
2022-11-07T18:35:28.936Z,2.20
2022-11-07T18:37:01.728Z,2.17
2022-11-07T18:38:34.719Z,2.17
2022-11-07T18:40:08.727Z,3.07
2022-11-07T18:41:43.454Z,2.90
2022-11-07T18:43:16.171Z,3.60
2022-11-07T18:44:48.947Z,3.10
2022-11-07T18:46:21.929Z,2.30
2022-11-07T18:47:54.731Z,2.70
2022-11-07T18:49:27.527Z,2.57
2022-11-07T18:51:00.469Z,3.47
2022-11-07T18:52:33.359Z,3.50
2022-11-07T18:54:06.836Z,2.80
2022-11-07T18:55:39.694Z,3.03
2022-11-07T18:57:13.808Z,2.50
2022-11-07T18:58:46.595Z,3.30
2022-11-07T19:00:19.599Z,3.37
2022-11-07T19:01:52.439Z,3.10
2022-11-07T19:03:25.298Z,2.33
2022-11-07T19:04:58.023Z,2.50
2022-11-07T19:06:31.637Z,2.60
2022-11-07T19:08:04.564Z,2.60
2022-11-07T19:09:37.876Z,2.80
2022-11-07T19:11:13.079Z,2.47
2022-11-07T19:12:47.382Z,2.40
2022-11-07T19:14:20.448Z,2.27
2022-11-07T19:15:53.785Z,2.50
2022-11-07T19:17:26.621Z,2.73
2022-11-07T19:19:00.193Z,2.60
2022-11-07T19:20:32.992Z,2.80
2022-11-07T19:22:06.457Z,2.57
2022-11-07T19:23:40.138Z,2.50
2022-11-07T19:25:18.745Z,2.77
2022-11-07T19:26:51.555Z,3.90
2022-11-07T19:28:25.641Z,3.20
2022-11-07T19:29:58.403Z,2.83
2022-11-07T19:31:34.793Z,2.30
2022-11-07T19:33:07.988Z,2.77
2022-11-07T19:34:40.812Z,2.63
2022-11-07T19:36:15.798Z,2.10
2022-11-07T19:37:48.598Z,2.30
2022-11-07T19:39:21.339Z,2.50
2022-11-07T19:40:54.210Z,2.07
2022-11-07T19:42:28.576Z,2.53
2022-11-07T19:44:04.278Z,2.70
2022-11-07T19:45:41.087Z,2.47
2022-11-07T19:47:14.026Z,2.60
2022-11-07T19:48:46.238Z,2.60
2022-11-07T19:50:19.647Z,2.70
2022-11-07T19:51:53.110Z,2.90
2022-11-07T19:53:25.857Z,2.90
2022-11-07T19:54:58.611Z,2.93
2022-11-07T19:56:33.440Z,3.20
2022-11-07T19:58:06.326Z,3.23
2022-11-07T19:59:40.392Z,3.23
2022-11-07T20:01:15.300Z,3.53
2022-11-07T20:02:48.795Z,3.37
2022-11-07T20:04:21.599Z,2.90
2022-11-07T20:05:54.446Z,2.80
2022-11-07T20:07:27.259Z,2.43
2022-11-07T20:09:01.342Z,2.60
2022-11-07T20:10:34.260Z,2.73
2022-11-07T20:12:07.638Z,2.30
2022-11-07T20:13:40.377Z,2.60
2022-11-07T20:15:15.450Z,2.50
2022-11-07T20:16:48.345Z,2.50
2022-11-07T20:18:21.068Z,2.43
2022-11-07T20:19:53.799Z,2.70
2022-11-07T20:21:27.669Z,2.90
2022-11-07T20:23:00.425Z,2.50
2022-11-07T20:24:33.200Z,3.07
2022-11-07T20:26:07.635Z,2.87
2022-11-07T20:27:40.444Z,3.60
2022-11-07T20:29:15.457Z,3.03
2022-11-07T20:30:49.590Z,3.60
2022-11-07T20:32:22.318Z,4.10
2022-11-07T20:33:58.025Z,3.83
2022-11-07T20:35:30.792Z,7.70
2022-11-07T20:37:03.560Z,6.90
2022-11-07T20:38:37.095Z,6.53
2022-11-07T20:40:11.548Z,3.57
2022-11-07T20:41:44.270Z,4.07
2022-11-07T20:43:17.360Z,3.60
2022-11-07T20:44:50.750Z,2.97
2022-11-07T20:46:25.678Z,3.10
2022-11-07T20:47:58.388Z,2.97
2022-11-07T20:49:31.143Z,2.77
2022-11-07T20:51:11.383Z,3.20
2022-11-07T20:52:44.114Z,3.37
2022-11-07T20:54:17.251Z,3.73
2022-11-07T20:55:50.104Z,4.07
2022-11-07T20:57:22.834Z,4.27
2022-11-07T20:58:56.596Z,3.43
2022-11-07T21:00:29.681Z,3.47
2022-11-07T21:02:04.336Z,3.30
2022-11-07T21:03:37.230Z,2.90
2022-11-07T21:05:17.664Z,3.23
2022-11-07T21:06:51.157Z,3.27
2022-11-07T21:08:23.930Z,3.03
2022-11-07T21:09:56.647Z,2.60
2022-11-07T21:11:30.449Z,2.73
2022-11-07T21:13:04.002Z,2.63
2022-11-07T21:14:37.400Z,2.40